CheckWX is a tool to help pilots better visualize weather data.  It is not intended as a substitute for an official pre-flight weather briefing.

08:51:08 UTC

KDDC TAF
Dodge City Regional Airport
Dodge City, Kansas, USA
KDDC 271120Z 2712/2812 VRB05KT P6SM BKN200 FM271900 04010KT P6SM BKN120

May-27@
12:00 UTC

May-27 @ 12:00 UTC

May-27@
19:00 UTC

May-27 @ 19:00 UTC

TAF KDDC 271120Z 2712/2812 VRB05KT P6SM BKN200

Expired

Wind
  • Variable at 5 KTS
Cloud Levels
  • Broken at 20,000' AGL

May-27@
19:00 UTC

May-27 @ 19:00 UTC

May-28@
12:00 UTC

May-28 @ 12:00 UTC

FM271900 04010KT P6SM BKN120

From

From Standard forecast or significant change

Wind
  • 040° at 10 KTS
Cloud Levels
  • Broken at 12,000' AGL